createdAt,value
2023-01-30T00:01:01.773Z,100.00
2023-01-30T00:03:32.768Z,100.00
2023-01-30T00:05:59.268Z,100.00
2023-01-30T00:08:25.777Z,100.00
2023-01-30T00:10:58.459Z,100.00
2023-01-30T00:13:26.732Z,100.00
2023-01-30T00:15:55.169Z,100.00
2023-01-30T00:18:21.703Z,100.00
2023-01-30T00:20:50.418Z,100.00
2023-01-30T00:23:16.915Z,100.00
2023-01-30T00:25:46.086Z,100.00
2023-01-30T00:28:13.047Z,100.00
2023-01-30T00:30:39.723Z,100.00
2023-01-30T00:33:06.227Z,100.00
2023-01-30T00:35:35.255Z,100.00
2023-01-30T00:38:01.935Z,100.00
2023-01-30T00:40:29.587Z,100.00
2023-01-30T00:43:14.817Z,100.00
2023-01-30T00:46:02.783Z,100.00
2023-01-30T00:48:29.627Z,100.00
2023-01-30T00:50:57.945Z,100.00
2023-01-30T00:53:24.836Z,100.00
2023-01-30T00:55:54.702Z,100.00
2023-01-30T00:58:22.628Z,100.00
2023-01-30T01:00:50.478Z,100.00
2023-01-30T01:03:29.269Z,100.00
2023-01-30T01:05:58.812Z,100.00
2023-01-30T01:08:25.339Z,100.00
2023-01-30T01:10:52.048Z,100.00
2023-01-30T01:13:18.528Z,100.00
2023-01-30T01:15:45.250Z,100.00
2023-01-30T01:18:13.529Z,100.00
2023-01-30T01:20:40.049Z,100.00
2023-01-30T01:23:06.585Z,100.00
2023-01-30T01:25:33.328Z,100.00
2023-01-30T01:27:59.865Z,100.00
2023-01-30T01:30:26.436Z,100.00
2023-01-30T01:33:05.373Z,100.00
2023-01-30T01:35:33.855Z,100.00
2023-01-30T01:38:00.322Z,100.00
2023-01-30T01:40:53.628Z,100.00
2023-01-30T01:43:25.054Z,100.00
2023-01-30T01:46:24.453Z,100.00
2023-01-30T01:48:58.135Z,100.00
2023-01-30T01:52:08.275Z,100.00
2023-01-30T01:54:42.899Z,100.00
2023-01-30T01:57:25.150Z,100.00
2023-01-30T01:59:56.219Z,100.00
2023-01-30T02:02:23.017Z,100.00
2023-01-30T02:05:07.328Z,100.00
2023-01-30T02:07:52.267Z,100.00
2023-01-30T02:10:22.945Z,100.00
2023-01-30T02:12:50.956Z,100.00
2023-01-30T02:15:20.084Z,100.00
2023-01-30T02:17:48.620Z,100.00
2023-01-30T02:20:27.458Z,100.00
2023-01-30T02:23:37.323Z,100.00
2023-01-30T02:26:28.474Z,100.00
2023-01-30T02:29:29.179Z,100.00
2023-01-30T02:32:19.838Z,100.00
2023-01-30T02:35:05.531Z,100.00
2023-01-30T02:38:03.430Z,100.00
2023-01-30T02:40:47.392Z,100.00
2023-01-30T02:43:26.409Z,100.00
2023-01-30T02:46:14.745Z,100.00
2023-01-30T02:48:49.948Z,100.00
2023-01-30T02:51:18.128Z,100.00
2023-01-30T02:53:46.923Z,100.00
2023-01-30T02:56:13.448Z,100.00
2023-01-30T02:58:56.161Z,100.00
2023-01-30T03:01:28.540Z,100.00
2023-01-30T03:04:20.183Z,100.00
2023-01-30T03:06:55.870Z,100.00
2023-01-30T03:09:51.536Z,100.00
2023-01-30T03:12:31.153Z,100.00
2023-01-30T03:15:06.648Z,100.00
2023-01-30T03:17:34.359Z,100.00
2023-01-30T03:20:01.399Z,100.00
2023-01-30T03:22:28.198Z,100.00
2023-01-30T03:24:54.871Z,100.00
2023-01-30T03:27:22.636Z,100.00
2023-01-30T03:29:53.693Z,100.00
2023-01-30T03:32:20.141Z,100.00
2023-01-30T03:34:46.662Z,100.00
2023-01-30T03:37:15.547Z,100.00
2023-01-30T03:39:43.698Z,100.00
2023-01-30T03:42:10.295Z,100.00
2023-01-30T03:44:37.053Z,100.00
2023-01-30T03:47:03.607Z,100.00
2023-01-30T03:49:30.078Z,100.00
2023-01-30T03:52:01.347Z,100.00
2023-01-30T03:54:27.812Z,100.00
2023-01-30T03:56:54.415Z,100.00
2023-01-30T03:59:21.207Z,100.00
2023-01-30T04:01:49.771Z,100.00
2023-01-30T04:04:16.234Z,100.00
2023-01-30T04:06:42.909Z,100.00
2023-01-30T04:09:09.390Z,100.00
2023-01-30T04:11:36.133Z,100.00
2023-01-30T04:14:04.489Z,100.00
2023-01-30T04:16:31.070Z,100.00
2023-01-30T04:18:57.593Z,100.00
2023-01-30T04:21:24.337Z,100.00
2023-01-30T04:23:52.778Z,100.00
2023-01-30T04:26:19.557Z,100.00
2023-01-30T04:28:48.431Z,100.00
2023-01-30T04:31:14.947Z,100.00
2023-01-30T04:33:43.735Z,100.00
2023-01-30T04:36:12.616Z,100.00
2023-01-30T04:38:39.637Z,100.00
2023-01-30T04:41:06.260Z,100.00
2023-01-30T04:43:33.007Z,100.00
2023-01-30T04:45:59.597Z,100.00
2023-01-30T04:48:26.535Z,100.00
2023-01-30T04:50:57.801Z,100.00
2023-01-30T04:53:25.413Z,100.00
2023-01-30T04:55:52.143Z,100.00
2023-01-30T04:58:31.119Z,100.00
2023-01-30T05:01:22.419Z,100.00
2023-01-30T05:03:58.889Z,100.00
2023-01-30T05:06:25.838Z,100.00
2023-01-30T05:08:54.010Z,100.00
2023-01-30T05:11:21.310Z,100.00
2023-01-30T05:13:48.084Z,100.00
2023-01-30T05:16:15.580Z,100.00
2023-01-30T05:18:43.324Z,100.00
2023-01-30T05:21:15.064Z,100.00
2023-01-30T05:23:41.605Z,100.00
2023-01-30T05:26:11.386Z,100.00
2023-01-30T05:28:42.231Z,100.00
2023-01-30T05:31:11.777Z,100.00
2023-01-30T05:33:39.436Z,100.00
2023-01-30T05:36:06.427Z,100.00
2023-01-30T05:38:32.930Z,100.00
2023-01-30T05:41:07.339Z,100.00
2023-01-30T05:43:35.427Z,100.00
2023-01-30T05:46:05.354Z,100.00
2023-01-30T05:48:35.587Z,100.00
2023-01-30T05:51:02.462Z,100.00
2023-01-30T05:53:31.752Z,100.00
2023-01-30T05:56:04.073Z,100.00
2023-01-30T05:58:31.153Z,100.00
2023-01-30T06:01:07.592Z,100.00
2023-01-30T06:03:34.157Z,100.00
2023-01-30T06:06:05.831Z,100.00
2023-01-30T06:08:39.077Z,100.00
2023-01-30T06:11:08.866Z,100.00
2023-01-30T06:13:38.583Z,100.00
2023-01-30T06:16:09.883Z,100.00
2023-01-30T06:18:36.598Z,100.00
2023-01-30T06:21:03.183Z,100.00
2023-01-30T06:23:31.812Z,100.00
2023-01-30T06:25:58.728Z,100.00
2023-01-30T06:28:26.082Z,100.00
2023-01-30T06:30:53.510Z,100.00
2023-01-30T06:33:20.345Z,100.00
2023-01-30T06:35:50.409Z,100.00
2023-01-30T06:38:17.963Z,100.00
2023-01-30T06:40:48.297Z,100.00
2023-01-30T06:43:15.675Z,100.00
2023-01-30T06:45:44.219Z,100.00
2023-01-30T06:48:10.758Z,100.00
2023-01-30T06:50:37.782Z,100.00
2023-01-30T06:53:11.006Z,100.00
2023-01-30T06:55:38.425Z,100.00
2023-01-30T06:58:07.628Z,100.00
2023-01-30T07:00:36.942Z,100.00
2023-01-30T07:03:03.680Z,100.00
2023-01-30T07:05:30.288Z,100.00
2023-01-30T07:07:58.596Z,100.00
2023-01-30T07:10:27.091Z,100.00
2023-01-30T07:12:53.788Z,100.00
2023-01-30T07:15:22.121Z,100.00
2023-01-30T07:17:48.962Z,100.00
2023-01-30T07:20:16.016Z,100.00
2023-01-30T07:22:42.744Z,100.00
2023-01-30T07:25:09.535Z,100.00
2023-01-30T07:27:36.012Z,100.00
2023-01-30T07:30:03.063Z,100.00
2023-01-30T07:32:29.600Z,100.00
2023-01-30T07:34:56.091Z,100.00
2023-01-30T07:37:24.433Z,100.00
2023-01-30T07:39:51.298Z,100.00
2023-01-30T07:42:17.864Z,100.00
2023-01-30T07:44:46.132Z,100.00
2023-01-30T07:47:12.683Z,100.00
2023-01-30T07:49:39.159Z,100.00
2023-01-30T07:52:14.785Z,100.00
2023-01-30T07:54:41.260Z,100.00
2023-01-30T07:57:07.764Z,97.87
2023-01-30T07:59:40.904Z,93.77
2023-01-30T08:02:10.252Z,88.99
2023-01-30T08:04:38.829Z,87.97
2023-01-30T08:07:05.536Z,86.47
2023-01-30T08:09:31.991Z,84.63
2023-01-30T08:11:58.469Z,80.85
2023-01-30T08:14:27.262Z,78.53
2023-01-30T08:16:53.932Z,80.73
2023-01-30T08:19:20.667Z,77.85
2023-01-30T08:21:47.195Z,74.06
2023-01-30T08:24:13.742Z,71.34
2023-01-30T08:26:40.337Z,67.83
2023-01-30T08:29:13.424Z,65.80
2023-01-30T08:31:39.971Z,66.92
2023-01-30T08:34:06.492Z,62.99
2023-01-30T08:36:34.815Z,63.35
2023-01-30T08:39:01.372Z,61.30
2023-01-30T08:41:28.441Z,60.33
2023-01-30T08:43:55.130Z,60.09
2023-01-30T08:46:22.111Z,60.51
2023-01-30T08:48:50.126Z,64.42
2023-01-30T08:51:18.725Z,68.85
2023-01-30T08:53:48.959Z,70.60
2023-01-30T08:56:15.480Z,73.26
2023-01-30T08:58:45.488Z,74.73
2023-01-30T09:01:12.263Z,77.25
2023-01-30T09:03:39.256Z,79.01
2023-01-30T09:06:07.586Z,76.82
2023-01-30T09:08:34.135Z,69.97
2023-01-30T09:11:02.713Z,72.54
2023-01-30T09:13:30.008Z,72.05
2023-01-30T09:15:59.383Z,69.05
2023-01-30T09:18:25.969Z,63.26
2023-01-30T09:20:54.171Z,61.75
2023-01-30T09:23:20.668Z,63.34
2023-01-30T09:25:47.359Z,58.82
2023-01-30T09:28:20.533Z,61.68
2023-01-30T09:30:47.080Z,63.99
2023-01-30T09:33:16.367Z,65.59
2023-01-30T09:35:42.991Z,65.66
2023-01-30T09:38:09.465Z,67.16
2023-01-30T09:40:42.880Z,68.65
2023-01-30T09:43:46.944Z,71.76
2023-01-30T09:46:30.858Z,70.55
2023-01-30T09:49:24.903Z,71.82
2023-01-30T09:52:16.980Z,72.28
2023-01-30T09:54:47.488Z,71.10
2023-01-30T09:57:22.400Z,72.95
2023-01-30T09:59:57.802Z,74.83
2023-01-30T10:02:29.127Z,74.81
2023-01-30T10:05:01.760Z,73.59
2023-01-30T10:07:49.840Z,77.06
2023-01-30T10:10:32.482Z,74.72
2023-01-30T10:13:21.428Z,77.00
2023-01-30T10:16:05.430Z,76.14
2023-01-30T10:18:49.418Z,72.78
2023-01-30T10:21:29.563Z,73.24
2023-01-30T10:24:15.788Z,72.13
2023-01-30T10:26:42.753Z,72.47
2023-01-30T10:29:25.995Z,64.76
2023-01-30T10:32:12.686Z,59.82
2023-01-30T10:34:43.196Z,59.35
2023-01-30T10:37:13.525Z,55.92
2023-01-30T10:40:24.650Z,51.66
2023-01-30T10:42:51.167Z,55.75
2023-01-30T10:45:21.253Z,54.01
2023-01-30T10:48:06.069Z,53.80
2023-01-30T10:50:56.861Z,49.27
2023-01-30T10:53:31.136Z,53.74
2023-01-30T10:56:03.159Z,53.15
2023-01-30T10:58:47.495Z,50.34
2023-01-30T11:01:19.871Z,53.82
2023-01-30T11:04:00.631Z,52.27
2023-01-30T11:06:27.262Z,52.47
2023-01-30T11:08:56.305Z,52.19
2023-01-30T11:11:29.311Z,50.12
2023-01-30T11:14:21.719Z,51.13
2023-01-30T11:16:53.276Z,49.75
2023-01-30T11:19:24.214Z,48.70
2023-01-30T11:22:00.090Z,50.10
2023-01-30T11:24:38.191Z,50.08
2023-01-30T11:27:29.824Z,49.06
2023-01-30T11:30:04.771Z,50.47
2023-01-30T11:32:31.568Z,52.30
2023-01-30T11:35:07.250Z,52.06
2023-01-30T11:37:36.867Z,52.89
2023-01-30T11:40:26.053Z,52.29
2023-01-30T11:43:05.802Z,52.50
2023-01-30T11:45:41.961Z,52.88
2023-01-30T11:48:33.706Z,55.47
2023-01-30T11:51:09.829Z,59.70
2023-01-30T11:53:41.843Z,57.64
2023-01-30T11:56:32.552Z,58.38
2023-01-30T11:59:03.418Z,58.55
2023-01-30T12:01:35.485Z,58.37
2023-01-30T12:04:08.233Z,55.93
2023-01-30T12:06:38.112Z,54.32
2023-01-30T12:09:05.612Z,55.96
2023-01-30T12:11:46.615Z,57.08
2023-01-30T12:14:16.854Z,58.34
2023-01-30T12:17:27.128Z,59.60
2023-01-30T12:20:21.924Z,58.64
2023-01-30T12:23:05.797Z,59.45
2023-01-30T12:28:48.549Z,62.05
2023-01-30T12:31:51.081Z,61.41
2023-01-30T12:34:22.795Z,63.45
2023-01-30T12:37:29.882Z,63.87
2023-01-30T12:40:18.331Z,64.94
2023-01-30T12:42:56.645Z,64.71
2023-01-30T12:45:59.557Z,64.84
2023-01-30T12:49:14.861Z,66.26
2023-01-30T12:51:58.547Z,66.63
2023-01-30T12:54:51.461Z,66.17
2023-01-30T12:57:27.397Z,67.94
2023-01-30T13:00:41.362Z,67.29
2023-01-30T13:03:43.892Z,68.36
2023-01-30T13:09:33.916Z,69.48
2023-01-30T13:15:29.516Z,70.35
2023-01-30T13:21:10.128Z,70.86
2023-01-30T13:24:01.212Z,71.76
2023-01-30T13:26:36.217Z,71.12
2023-01-30T13:29:09.767Z,71.96
2023-01-30T13:31:40.361Z,72.41
2023-01-30T13:37:13.498Z,75.04
2023-01-30T13:40:15.069Z,75.94
2023-01-30T13:42:50.043Z,75.38
2023-01-30T13:45:21.280Z,76.99
2023-01-30T13:47:47.812Z,75.86
2023-01-30T13:50:47.748Z,75.49
2023-01-30T13:53:24.843Z,75.81
2023-01-30T13:56:32.907Z,76.37
2023-01-30T13:59:30.906Z,76.92
2023-01-30T14:02:09.035Z,78.50
2023-01-30T14:04:41.523Z,78.97
2023-01-30T14:07:16.272Z,79.70
2023-01-30T14:10:09.660Z,80.82
2023-01-30T14:12:52.771Z,81.24
2023-01-30T14:15:26.684Z,81.62
2023-01-30T14:18:22.915Z,81.57
2023-01-30T14:20:51.214Z,82.08
2023-01-30T14:23:34.391Z,83.05
2023-01-30T14:26:01.436Z,83.85
2023-01-30T14:28:30.604Z,84.45
2023-01-30T14:31:03.327Z,85.01
2023-01-30T14:33:48.797Z,85.27
2023-01-30T14:36:15.347Z,85.85
2023-01-30T14:38:45.338Z,85.91
2023-01-30T14:41:27.941Z,86.16
2023-01-30T14:43:56.393Z,86.66
2023-01-30T14:46:24.033Z,86.87
2023-01-30T14:49:23.203Z,86.92
2023-01-30T14:51:49.943Z,86.87
2023-01-30T14:54:27.472Z,87.86
2023-01-30T14:57:00.402Z,88.77
2023-01-30T14:59:38.741Z,89.38
2023-01-30T15:02:15.801Z,89.78
2023-01-30T15:04:44.338Z,90.54
2023-01-30T15:07:13.643Z,90.81
2023-01-30T15:09:46.717Z,92.51
2023-01-30T15:12:26.002Z,94.00
2023-01-30T15:15:14.118Z,95.93
2023-01-30T15:18:07.293Z,97.94
2023-01-30T15:20:54.227Z,99.32
2023-01-30T15:23:32.196Z,100.00
2023-01-30T15:26:34.278Z,100.00
2023-01-30T15:29:30.045Z,100.00
2023-01-30T15:32:22.448Z,100.00
2023-01-30T15:35:01.723Z,100.00
2023-01-30T15:37:40.899Z,100.00
2023-01-30T15:40:28.222Z,100.00
2023-01-30T15:43:15.903Z,100.00
2023-01-30T15:46:03.698Z,100.00
2023-01-30T15:48:50.366Z,100.00
2023-01-30T15:51:22.686Z,100.00
2023-01-30T15:53:56.299Z,100.00
2023-01-30T15:56:30.150Z,100.00
2023-01-30T15:58:59.333Z,100.00
2023-01-30T16:01:26.352Z,100.00
2023-01-30T16:03:58.113Z,100.00
2023-01-30T16:06:34.562Z,100.00
2023-01-30T16:09:04.724Z,100.00
2023-01-30T16:11:42.483Z,100.00
2023-01-30T16:14:14.407Z,100.00
2023-01-30T16:16:49.176Z,100.00
2023-01-30T16:19:26.578Z,100.00
2023-01-30T16:21:56.989Z,100.00
2023-01-30T16:24:28.384Z,100.00
2023-01-30T16:27:01.277Z,100.00
2023-01-30T16:29:30.575Z,100.00
2023-01-30T16:31:57.445Z,100.00
2023-01-30T16:34:33.338Z,100.00
2023-01-30T16:37:24.640Z,100.00
2023-01-30T16:40:03.995Z,100.00
2023-01-30T16:42:33.605Z,100.00
2023-01-30T16:45:10.726Z,100.00
2023-01-30T16:47:37.878Z,100.00
2023-01-30T16:50:10.341Z,100.00
2023-01-30T16:52:46.213Z,100.00
2023-01-30T16:55:22.172Z,100.00
2023-01-30T16:57:59.569Z,100.00
2023-01-30T17:00:33.811Z,100.00
2023-01-30T17:03:04.160Z,100.00
2023-01-30T17:05:38.518Z,100.00
2023-01-30T17:08:05.086Z,100.00
2023-01-30T17:10:37.792Z,100.00
2023-01-30T17:13:04.675Z,100.00
2023-01-30T17:15:33.509Z,100.00
2023-01-30T17:18:00.368Z,100.00
2023-01-30T17:20:37.338Z,100.00
2023-01-30T17:23:11.690Z,100.00
2023-01-30T17:25:45.723Z,100.00
2023-01-30T17:28:23.290Z,100.00
2023-01-30T17:30:50.471Z,100.00
2023-01-30T17:33:18.978Z,100.00
2023-01-30T17:35:47.428Z,100.00
2023-01-30T17:38:14.045Z,100.00
2023-01-30T17:40:45.045Z,100.00
2023-01-30T17:43:14.855Z,100.00
2023-01-30T17:45:41.611Z,100.00
2023-01-30T17:48:10.894Z,100.00
2023-01-30T17:50:41.019Z,100.00
2023-01-30T17:53:08.001Z,100.00
2023-01-30T17:55:35.501Z,100.00
2023-01-30T17:58:08.657Z,100.00
2023-01-30T18:00:35.124Z,100.00
2023-01-30T18:03:01.701Z,100.00
2023-01-30T18:05:30.482Z,100.00
2023-01-30T18:07:57.021Z,100.00
2023-01-30T18:10:23.600Z,100.00
2023-01-30T18:12:51.841Z,100.00
2023-01-30T18:15:18.720Z,100.00
2023-01-30T18:17:47.738Z,100.00
2023-01-30T18:20:16.399Z,100.00
2023-01-30T18:22:45.002Z,100.00
2023-01-30T18:25:14.640Z,100.00
2023-01-30T18:27:44.251Z,100.00
2023-01-30T18:30:15.095Z,100.00
2023-01-30T18:32:52.132Z,100.00
2023-01-30T18:35:21.562Z,100.00
2023-01-30T18:37:48.205Z,100.00
2023-01-30T18:40:15.298Z,100.00
2023-01-30T18:42:43.839Z,100.00
2023-01-30T18:45:10.468Z,100.00
2023-01-30T18:47:37.448Z,100.00
2023-01-30T18:50:04.747Z,100.00
2023-01-30T18:52:31.335Z,100.00
2023-01-30T18:54:57.875Z,100.00
2023-01-30T18:57:26.586Z,100.00
2023-01-30T18:59:55.073Z,100.00
2023-01-30T19:02:21.615Z,100.00
2023-01-30T19:04:50.307Z,100.00
2023-01-30T19:07:16.828Z,100.00
2023-01-30T19:09:43.318Z,100.00
2023-01-30T19:12:28.596Z,100.00
2023-01-30T19:14:59.051Z,100.00
2023-01-30T19:17:25.748Z,100.00
2023-01-30T19:19:52.277Z,100.00
2023-01-30T19:22:18.754Z,100.00
2023-01-30T19:24:45.405Z,100.00
2023-01-30T19:27:15.549Z,100.00
2023-01-30T19:29:42.833Z,100.00
2023-01-30T19:32:09.659Z,100.00
2023-01-30T19:34:39.341Z,100.00
2023-01-30T19:37:06.795Z,100.00
2023-01-30T19:39:33.460Z,100.00
2023-01-30T19:42:04.555Z,100.00
2023-01-30T19:44:31.051Z,100.00
2023-01-30T19:46:57.790Z,100.00
2023-01-30T19:49:26.135Z,100.00
2023-01-30T19:51:52.629Z,100.00
2023-01-30T19:54:22.864Z,100.00
2023-01-30T19:56:49.594Z,100.00
2023-01-30T19:59:16.717Z,100.00
2023-01-30T20:01:43.456Z,100.00
2023-01-30T20:04:12.266Z,100.00
2023-01-30T20:06:43.340Z,100.00
2023-01-30T20:09:11.286Z,100.00
2023-01-30T20:11:39.928Z,100.00
2023-01-30T20:14:07.256Z,100.00
2023-01-30T20:16:35.681Z,100.00
2023-01-30T20:19:05.400Z,100.00
2023-01-30T20:21:32.126Z,100.00
2023-01-30T20:24:00.188Z,100.00
2023-01-30T20:26:30.440Z,100.00
2023-01-30T20:29:01.717Z,100.00
2023-01-30T20:31:29.998Z,100.00
2023-01-30T20:33:57.866Z,100.00
2023-01-30T20:36:26.900Z,100.00
2023-01-30T20:38:55.390Z,100.00
2023-01-30T20:41:28.552Z,100.00
2023-01-30T20:43:57.455Z,100.00
2023-01-30T20:46:39.680Z,100.00
2023-01-30T20:49:07.887Z,100.00
2023-01-30T20:51:37.122Z,100.00
2023-01-30T20:54:06.407Z,100.00
2023-01-30T20:56:38.882Z,100.00
2023-01-30T20:59:07.903Z,100.00
2023-01-30T21:01:35.455Z,100.00
2023-01-30T21:04:12.319Z,100.00
2023-01-30T21:06:44.784Z,100.00
2023-01-30T21:09:17.875Z,100.00
2023-01-30T21:11:44.898Z,100.00
2023-01-30T21:14:11.649Z,100.00
2023-01-30T21:16:40.452Z,100.00
2023-01-30T21:19:13.774Z,100.00
2023-01-30T21:21:51.097Z,100.00
2023-01-30T21:24:20.800Z,100.00
2023-01-30T21:26:47.678Z,100.00
2023-01-30T21:29:16.995Z,100.00
2023-01-30T21:31:44.498Z,100.00
2023-01-30T21:34:11.619Z,100.00
2023-01-30T21:36:40.453Z,100.00
2023-01-30T21:39:25.757Z,100.00
2023-01-30T21:42:01.521Z,100.00
2023-01-30T21:44:29.732Z,100.00
2023-01-30T21:46:56.920Z,100.00
2023-01-30T21:49:27.126Z,100.00
2023-01-30T21:51:54.416Z,100.00
2023-01-30T21:54:21.815Z,100.00
2023-01-30T21:56:57.000Z,100.00
2023-01-30T21:59:23.552Z,100.00
2023-01-30T22:01:50.057Z,100.00
2023-01-30T22:04:16.684Z,100.00
2023-01-30T22:06:44.040Z,100.00
2023-01-30T22:09:15.031Z,100.00
2023-01-30T22:11:42.148Z,100.00
2023-01-30T22:14:08.917Z,100.00
2023-01-30T22:16:35.415Z,100.00
2023-01-30T22:19:06.337Z,100.00
2023-01-30T22:21:36.217Z,100.00
2023-01-30T22:24:05.410Z,100.00
2023-01-30T22:26:33.889Z,100.00
2023-01-30T22:29:03.405Z,100.00
2023-01-30T22:31:34.598Z,100.00
2023-01-30T22:34:08.558Z,100.00
2023-01-30T22:36:35.906Z,100.00
2023-01-30T22:39:02.957Z,100.00
2023-01-30T22:41:32.543Z,100.00
2023-01-30T22:44:00.226Z,100.00
2023-01-30T22:46:32.991Z,100.00
2023-01-30T22:49:07.169Z,100.00
2023-01-30T22:51:39.840Z,100.00
2023-01-30T22:54:19.245Z,100.00
2023-01-30T22:56:48.776Z,100.00
2023-01-30T22:59:15.455Z,100.00
2023-01-30T23:01:46.809Z,100.00
2023-01-30T23:04:16.507Z,100.00
2023-01-30T23:06:44.062Z,100.00
2023-01-30T23:09:19.266Z,100.00
2023-01-30T23:12:07.354Z,100.00
2023-01-30T23:14:40.603Z,100.00
2023-01-30T23:17:26.159Z,100.00
2023-01-30T23:19:57.961Z,100.00
2023-01-30T23:22:24.545Z,100.00
2023-01-30T23:24:51.506Z,100.00
2023-01-30T23:27:18.514Z,100.00
2023-01-30T23:29:45.004Z,100.00
2023-01-30T23:32:11.708Z,100.00
2023-01-30T23:34:38.878Z,100.00
2023-01-30T23:37:05.466Z,100.00
2023-01-30T23:39:31.965Z,100.00
2023-01-30T23:42:07.202Z,100.00
2023-01-30T23:44:33.683Z,100.00
2023-01-30T23:47:00.268Z,100.00
2023-01-30T23:49:28.772Z,100.00
2023-01-30T23:51:55.487Z,100.00
2023-01-30T23:54:21.987Z,100.00
2023-01-30T23:56:50.291Z,100.00
2023-01-30T23:59:16.813Z,100.00
